Time;durP1;ratioP1;P1;durP2;ratioP2;P2;SDS_P1;SDS_P2;PMS_P1;PMS_P2;Temp;Humidity;BMP_temperature;BMP_pressure;BME280_temperature;BME280_humidity;BME280_pressure;Samples;Min_cycle;Max_cycle;Signal;HPM_P1;HPM_P2
2022/01/26 00:07:40;;;;;;;;;;;15.80;99.90;;;;;;5018098;28;823;-45
2022/01/26 00:10:08;;;;;;;;;;;15.80;99.90;;;;;;5017391;28;963;-45
2022/01/26 00:12:35;;;;;;;;;;;15.70;99.90;;;;;;5016871;28;870;-45
2022/01/26 00:15:01;;;;;;;;;;;15.70;99.90;;;;;;5017629;28;822;-45
2022/01/26 00:17:27;;;;;;;;;;;15.70;99.90;;;;;;5017037;28;1906;-45
2022/01/26 00:20:00;;;;;;;;;;;15.70;99.90;;;;;;5017531;28;1144;-45
2022/01/26 00:25:39;;;;;;;;;;;15.60;99.90;;;;;;5016953;28;975;-45
2022/01/26 00:28:34;;;;;;;;;;;15.60;99.90;;;;;;5017384;28;826;-45
2022/01/26 00:32:00;;;;;;;;;;;15.60;99.90;;;;;;4999337;28;917;-45
2022/01/26 00:38:33;;;;;;;;;;;15.50;99.90;;;;;;5016021;28;1358;-45
2022/01/26 00:39:52;;;;;;;;;;;15.40;99.90;;;;;;5002594;28;813;-45
2022/01/26 00:42:18;;;;;;;;;;;15.40;99.90;;;;;;5017240;28;871;-45
2022/01/26 00:44:48;;;;;;;;;;;15.40;99.90;;;;;;5017098;28;756;-44
2022/01/26 00:47:15;;;;;;;;;;;15.40;99.90;;;;;;5015426;28;1022;-45
2022/01/26 00:49:42;;;;;;;;;;;15.30;99.90;;;;;;5016840;28;1039;-45
2022/01/26 00:52:13;;;;;;;;;;;15.30;99.90;;;;;;5015433;28;794;-45
2022/01/26 00:54:39;;;;;;;;;;;15.30;99.90;;;;;;4997080;28;1480;-45
2022/01/26 00:57:05;;;;;;;;;;;15.30;99.90;;;;;;5016901;28;1966;-45
2022/01/26 00:59:31;;;;;;;;;;;15.30;99.90;;;;;;5016946;28;788;-45
2022/01/26 01:01:59;;;;;;;;;;;15.20;99.90;;;;;;5016967;28;863;-45
2022/01/26 01:04:26;;;;;;;;;;;15.20;99.90;;;;;;5016874;28;764;-45
2022/01/26 01:06:58;;;;;;;;;;;15.20;99.90;;;;;;5016061;28;854;-45
2022/01/26 01:09:31;;;;;;;;;;;15.20;99.90;;;;;;5017110;28;1065;-45
2022/01/26 01:11:59;;;;;;;;;;;15.20;99.90;;;;;;5016925;28;794;-45
2022/01/26 01:14:26;;;;;;;;;;;15.10;99.90;;;;;;5016259;28;887;-55
2022/01/26 01:16:56;;;;;;;;;;;15.10;99.90;;;;;;4982619;28;956;-55
2022/01/26 01:19:35;;;;;;;;;;;15.10;99.90;;;;;;5015148;28;900;-55
2022/01/26 01:25:28;;;;;;;;;;;15.10;99.90;;;;;;4996214;28;1240;-45
2022/01/26 01:27:52;;;;;;;;;;;15.00;99.90;;;;;;5015887;28;1383;-45
2022/01/26 01:32:54;;;;;;;;;;;15.00;99.90;;;;;;5014951;28;1247;-45
2022/01/26 01:35:21;;;;;;;;;;;14.90;99.90;;;;;;4998506;28;1533;-55
2022/01/26 01:37:47;;;;;;;;;;;14.90;99.90;;;;;;5015937;28;1961;-55
2022/01/26 01:40:14;;;;;;;;;;;14.90;99.90;;;;;;5016172;28;1503;-45
2022/01/26 01:42:42;;;;;;;;;;;14.90;99.90;;;;;;5016502;28;815;-44
2022/01/26 01:45:08;;;;;;;;;;;14.90;99.90;;;;;;5016279;28;791;-54
2022/01/26 01:47:35;;;;;;;;;;;14.80;99.90;;;;;;4998235;28;1020;-57
2022/01/26 01:50:07;;;;;;;;;;;14.90;99.90;;;;;;4998831;28;1032;-45
2022/01/26 01:52:33;;;;;;;;;;;14.80;99.90;;;;;;5014582;28;1365;-45
2022/01/26 01:55:03;;;;;;;;;;;14.80;99.90;;;;;;5015422;28;901;-45
2022/01/26 01:57:30;;;;;;;;;;;14.80;99.90;;;;;;5012432;28;1910;-55
2022/01/26 01:59:58;;;;;;;;;;;14.80;99.90;;;;;;5016182;28;1519;-54
2022/01/26 02:02:26;;;;;;;;;;;14.70;99.90;;;;;;4998672;28;878;-54
2022/01/26 02:04:52;;;;;;;;;;;14.70;99.90;;;;;;5015942;28;965;-54
2022/01/26 02:07:18;;;;;;;;;;;14.70;99.90;;;;;;5014715;28;886;-55
2022/01/26 02:09:45;;;;;;;;;;;14.70;99.90;;;;;;5016046;28;1167;-54
2022/01/26 02:12:12;;;;;;;;;;;14.70;99.90;;;;;;5016173;28;760;-55
2022/01/26 02:14:43;;;;;;;;;;;14.60;99.90;;;;;;5015939;28;825;-55
2022/01/26 02:20:10;;;;;;;;;;;14.70;99.90;;;;;;5015812;28;910;-54
2022/01/26 02:53:46;;;;;;;;;;;14.40;99.90;;;;;;5018046;28;1341;-55
2022/01/26 02:56:22;;;;;;;;;;;14.40;99.90;;;;;;5018710;28;1916;-54
2022/01/26 03:04:11;;;;;;;;;;;14.40;99.90;;;;;;5019039;28;763;-55
2022/01/26 03:06:46;;;;;;;;;;;14.40;99.90;;;;;;5001723;28;854;-54
2022/01/26 03:09:16;;;;;;;;;;;14.30;99.90;;;;;;5015672;28;738;-54
2022/01/26 03:11:44;;;;;;;;;;;14.30;99.90;;;;;;5018457;28;902;-55
2022/01/26 03:17:09;;;;;;;;;;;14.30;99.90;;;;;;5018788;28;824;-55
2022/01/26 03:19:40;;;;;;;;;;;14.30;99.90;;;;;;5016865;28;1898;-54
2022/01/26 03:35:18;;;;;;;;;;;14.20;99.90;;;;;;5018461;28;1561;-55
2022/01/26 03:37:54;;;;;;;;;;;14.20;99.90;;;;;;5017662;28;1894;-54
2022/01/26 03:40:30;;;;;;;;;;;14.20;99.90;;;;;;5018196;28;923;-55
2022/01/26 03:42:57;;;;;;;;;;;14.20;99.90;;;;;;4986106;28;923;-45
2022/01/26 03:45:23;;;;;;;;;;;14.10;99.90;;;;;;5018128;28;984;-45
2022/01/26 03:47:49;;;;;;;;;;;14.10;99.90;;;;;;5018193;28;1023;-45
2022/01/26 03:50:15;;;;;;;;;;;14.10;99.90;;;;;;5018353;28;799;-45
2022/01/26 03:52:42;;;;;;;;;;;14.10;99.90;;;;;;5019084;28;1018;-55
2022/01/26 03:55:09;;;;;;;;;;;14.10;99.90;;;;;;5017161;28;1348;-45
2022/01/26 03:57:35;;;;;;;;;;;14.10;99.90;;;;;;5018183;28;1964;-55
2022/01/26 04:00:01;;;;;;;;;;;14.10;99.90;;;;;;5018869;28;862;-45
2022/01/26 04:05:05;;;;;;;;;;;14.00;99.90;;;;;;5011668;28;1839;-54
2022/01/26 04:07:30;;;;;;;;;;;14.00;99.90;;;;;;5011662;28;857;-54
2022/01/26 04:10:13;;;;;;;;;;;14.00;99.90;;;;;;5017767;28;874;-55
2022/01/26 04:12:40;;;;;;;;;;;14.00;99.90;;;;;;5017239;28;826;-52
2022/01/26 04:15:16;;;;;;;;;;;14.00;99.90;;;;;;5016537;28;1444;-54
2022/01/26 04:17:42;;;;;;;;;;;14.00;99.90;;;;;;5019417;28;1910;-49
2022/01/26 04:20:08;;;;;;;;;;;13.90;99.90;;;;;;5017071;28;1597;-44
2022/01/26 04:22:48;;;;;;;;;;;13.90;99.90;;;;;;5017793;28;860;-54
2022/01/26 04:25:19;;;;;;;;;;;13.90;99.90;;;;;;5017636;28;799;-54
2022/01/26 04:27:50;;;;;;;;;;;13.90;99.90;;;;;;5016721;28;863;-55
2022/01/26 04:30:16;;;;;;;;;;;13.90;99.90;;;;;;5016724;28;987;-54
2022/01/26 04:32:44;;;;;;;;;;;13.90;99.90;;;;;;5017596;28;785;-55
2022/01/26 04:35:10;;;;;;;;;;;13.90;99.90;;;;;;5017363;28;877;-55
2022/01/26 04:40:18;;;;;;;;;;;13.80;99.90;;;;;;5000041;28;1649;-54
2022/01/26 04:43:01;;;;;;;;;;;13.80;99.90;;;;;;5017173;28;936;-54
2022/01/26 04:45:27;;;;;;;;;;;13.80;99.90;;;;;;4999828;28;1565;-55
2022/01/26 04:47:52;;;;;;;;;;;13.80;99.90;;;;;;5016868;28;794;-54
2022/01/26 04:50:19;;;;;;;;;;;13.80;99.90;;;;;;5016871;28;837;-58
2022/01/26 04:52:46;;;;;;;;;;;13.80;99.90;;;;;;5012645;28;1585;-55
2022/01/26 04:55:15;;;;;;;;;;;13.80;99.90;;;;;;5017012;28;847;-55
2022/01/26 04:57:41;;;;;;;;;;;13.80;99.90;;;;;;5016834;28;1902;-55
2022/01/26 05:00:08;;;;;;;;;;;13.80;99.90;;;;;;5016293;28;900;-55
2022/01/26 05:02:35;;;;;;;;;;;13.70;99.90;;;;;;5016801;28;783;-54
2022/01/26 05:05:02;;;;;;;;;;;13.70;99.90;;;;;;5016760;28;912;-55
2022/01/26 05:07:28;;;;;;;;;;;13.70;99.90;;;;;;5016761;28;723;-54
2022/01/26 05:09:54;;;;;;;;;;;13.70;99.90;;;;;;4999408;28;843;-55
2022/01/26 05:12:21;;;;;;;;;;;13.70;99.90;;;;;;5016546;28;980;-54
2022/01/26 05:14:49;;;;;;;;;;;13.70;99.90;;;;;;5016663;28;814;-54
2022/01/26 05:17:19;;;;;;;;;;;13.60;99.90;;;;;;5016611;28;802;-55
2022/01/26 05:19:44;;;;;;;;;;;13.70;99.90;;;;;;5015704;28;1914;-54
2022/01/26 05:22:12;;;;;;;;;;;13.70;99.90;;;;;;5016533;28;888;-54
2022/01/26 05:24:39;;;;;;;;;;;13.60;99.90;;;;;;5016437;28;838;-55
2022/01/26 05:27:07;;;;;;;;;;;13.60;99.90;;;;;;4998668;28;1002;-55
2022/01/26 05:29:34;;;;;;;;;;;13.60;99.90;;;;;;5016176;28;1291;-55
2022/01/26 05:32:00;;;;;;;;;;;13.60;99.90;;;;;;5015672;28;1434;-54
2022/01/26 05:34:26;;;;;;;;;;;13.60;99.90;;;;;;5015958;28;811;-54
2022/01/26 05:36:53;;;;;;;;;;;13.50;99.90;;;;;;5016626;28;751;-54
2022/01/26 05:39:19;;;;;;;;;;;13.50;99.90;;;;;;5016224;28;1898;-54
2022/01/26 05:41:46;;;;;;;;;;;13.50;99.90;;;;;;5016269;28;916;-54
2022/01/26 05:44:13;;;;;;;;;;;13.50;99.90;;;;;;5016187;28;933;-55
2022/01/26 05:46:45;;;;;;;;;;;13.50;99.90;;;;;;5015842;28;807;-54
2022/01/26 05:49:12;;;;;;;;;;;13.50;99.90;;;;;;5015928;28;1011;-55
2022/01/26 05:51:40;;;;;;;;;;;13.50;99.90;;;;;;5015744;28;1152;-54
2022/01/26 05:54:11;;;;;;;;;;;13.50;99.90;;;;;;5014963;28;1379;-55
2022/01/26 05:56:38;;;;;;;;;;;13.50;99.90;;;;;;5010720;28;1017;-54
2022/01/26 05:59:06;;;;;;;;;;;13.50;99.90;;;;;;5015996;28;1906;-55
2022/01/26 06:01:32;;;;;;;;;;;13.50;99.90;;;;;;5016008;28;857;-54
2022/01/26 06:03:58;;;;;;;;;;;13.50;99.90;;;;;;5014070;28;1229;-54
2022/01/26 06:06:24;;;;;;;;;;;13.50;99.90;;;;;;5015970;28;780;-54
2022/01/26 06:08:50;;;;;;;;;;;13.50;99.90;;;;;;4998706;28;1623;-54
2022/01/26 06:11:16;;;;;;;;;;;13.50;99.90;;;;;;5017370;28;931;-54
2022/01/26 06:13:43;;;;;;;;;;;13.50;99.90;;;;;;5020243;28;791;-55
2022/01/26 06:16:11;;;;;;;;;;;13.50;99.90;;;;;;5019977;28;774;-54
2022/01/26 06:18:39;;;;;;;;;;;13.50;99.90;;;;;;5019113;28;1918;-55
2022/01/26 06:21:06;;;;;;;;;;;13.60;99.90;;;;;;5019896;28;845;-54
2022/01/26 06:23:32;;;;;;;;;;;13.60;99.90;;;;;;5019848;28;849;-55
2022/01/26 06:25:58;;;;;;;;;;;13.70;99.90;;;;;;5019982;28;869;-55
2022/01/26 06:28:27;;;;;;;;;;;13.70;99.90;;;;;;5019733;28;842;-55
2022/01/26 06:30:55;;;;;;;;;;;13.70;99.90;;;;;;5018733;28;1501;-55
2022/01/26 06:33:21;;;;;;;;;;;13.80;99.90;;;;;;5018717;28;971;-54
2022/01/26 06:35:47;;;;;;;;;;;13.90;99.90;;;;;;5018503;28;1145;-53
2022/01/26 06:38:14;;;;;;;;;;;13.90;99.90;;;;;;5019570;28;1906;-54
2022/01/26 06:40:40;;;;;;;;;;;13.90;99.90;;;;;;5019719;28;792;-54
2022/01/26 06:43:11;;;;;;;;;;;14.00;99.90;;;;;;5019501;28;957;-53
2022/01/26 06:45:46;;;;;;;;;;;14.00;99.90;;;;;;5016525;28;887;-55
2022/01/26 06:48:39;;;;;;;;;;;14.10;99.90;;;;;;5019349;28;809;-55
2022/01/26 06:51:00;;;;;;;;;;;14.20;99.90;;;;;;5019194;28;1669;-56
2022/01/26 06:53:27;;;;;;;;;;;14.20;99.90;;;;;;5016083;28;1454;-54
2022/01/26 06:55:53;;;;;;;;;;;14.20;99.90;;;;;;5016597;28;846;-54
2022/01/26 06:58:21;;;;;;;;;;;14.30;99.90;;;;;;5019393;28;1969;-56
2022/01/26 07:00:47;;;;;;;;;;;14.30;99.90;;;;;;5019358;28;1233;-55
2022/01/26 07:03:13;;;;;;;;;;;14.30;99.90;;;;;;5018535;28;1382;-55
2022/01/26 07:05:41;;;;;;;;;;;14.40;99.90;;;;;;5019012;28;774;-55
2022/01/26 07:08:06;;;;;;;;;;;14.40;99.90;;;;;;5018670;28;870;-55
2022/01/26 07:10:32;;;;;;;;;;;14.40;99.90;;;;;;5018961;28;790;-55
2022/01/26 07:12:58;;;;;;;;;;;14.50;99.90;;;;;;5018895;28;803;-54
2022/01/26 07:23:23;;;;;;;;;;;14.50;99.90;;;;;;5018377;28;799;-55
2022/01/26 07:25:49;;;;;;;;;;;14.50;99.90;;;;;;5018636;28;785;-55
2022/01/26 07:28:16;;;;;;;;;;;14.50;99.90;;;;;;5017295;28;1203;-55
2022/01/26 07:30:44;;;;;;;;;;;14.50;99.90;;;;;;5018424;28;1433;-55
2022/01/26 07:33:12;;;;;;;;;;;14.50;99.90;;;;;;5018306;28;888;-55
2022/01/26 07:35:38;;;;;;;;;;;14.50;99.90;;;;;;5016501;28;1147;-55
2022/01/26 07:38:05;;;;;;;;;;;14.50;99.90;;;;;;4967886;28;1910;-55
2022/01/26 07:40:31;;;;;;;;;;;14.60;99.90;;;;;;5018107;28;1354;-45
2022/01/26 07:42:57;;;;;;;;;;;14.60;99.90;;;;;;5017970;28;1444;-45
2022/01/26 07:45:25;;;;;;;;;;;14.60;99.90;;;;;;5017922;28;1252;-45
2022/01/26 07:47:54;;;;;;;;;;;14.60;99.90;;;;;;5018100;28;1314;-45
2022/01/26 07:50:21;;;;;;;;;;;14.60;99.90;;;;;;5017389;28;1179;-45
2022/01/26 07:52:47;;;;;;;;;;;14.60;99.90;;;;;;4999340;28;1412;-45
2022/01/26 07:55:17;;;;;;;;;;;14.60;99.90;;;;;;5017782;28;1366;-55
2022/01/26 07:57:46;;;;;;;;;;;14.60;99.90;;;;;;5017689;28;1109;-55
2022/01/26 08:00:12;;;;;;;;;;;14.60;99.90;;;;;;5022522;28;1902;-45
2022/01/26 08:02:38;;;;;;;;;;;14.60;99.90;;;;;;5026881;28;1431;-45
2022/01/26 08:05:04;;;;;;;;;;;14.60;99.90;;;;;;5012319;28;1330;-45
2022/01/26 08:07:30;;;;;;;;;;;14.60;99.90;;;;;;5026138;28;1312;-45
2022/01/26 08:09:56;;;;;;;;;;;14.60;99.90;;;;;;5025578;28;1317;-45
2022/01/26 08:12:23;;;;;;;;;;;14.60;99.90;;;;;;5016186;28;1554;-45
2022/01/26 08:14:52;;;;;;;;;;;14.60;99.90;;;;;;4998324;28;1634;-45
2022/01/26 08:17:19;;;;;;;;;;;14.60;99.90;;;;;;4982082;28;1400;-54
2022/01/26 08:19:46;;;;;;;;;;;14.60;99.90;;;;;;5017006;28;1906;-45
2022/01/26 08:22:18;;;;;;;;;;;14.60;99.90;;;;;;5016881;28;1605;-45
2022/01/26 08:24:48;;;;;;;;;;;14.70;99.90;;;;;;5016151;28;1046;-45
2022/01/26 08:27:17;;;;;;;;;;;14.70;99.90;;;;;;5016514;28;1356;-45
2022/01/26 08:29:53;;;;;;;;;;;14.70;99.90;;;;;;5014966;28;1613;-55
2022/01/26 08:32:19;;;;;;;;;;;14.70;99.90;;;;;;4999362;28;1610;-55
2022/01/26 08:34:45;;;;;;;;;;;14.70;99.90;;;;;;4998438;28;1010;-55
2022/01/26 08:37:12;;;;;;;;;;;14.70;99.90;;;;;;5016220;28;1097;-45
2022/01/26 08:39:38;;;;;;;;;;;14.80;99.90;;;;;;5014600;28;1969;-45
2022/01/26 08:42:06;;;;;;;;;;;14.80;99.90;;;;;;5016528;28;1339;-55
2022/01/26 08:44:33;;;;;;;;;;;14.80;99.90;;;;;;5016630;28;1103;-55
2022/01/26 08:46:58;;;;;;;;;;;14.80;99.90;;;;;;5016873;28;1411;-54
2022/01/26 08:49:25;;;;;;;;;;;14.90;99.90;;;;;;5016511;28;955;-55
2022/01/26 08:51:51;;;;;;;;;;;14.90;99.90;;;;;;5013380;28;1305;-55
2022/01/26 08:54:22;;;;;;;;;;;15.00;99.90;;;;;;5015595;28;1408;-55
2022/01/26 08:56:52;;;;;;;;;;;15.00;99.90;;;;;;5014476;28;1336;-55
2022/01/26 08:59:18;;;;;;;;;;;15.00;99.90;;;;;;5015793;28;1982;-55
2022/01/26 09:01:46;;;;;;;;;;;15.00;99.90;;;;;;5015174;28;1298;-55
2022/01/26 09:04:12;;;;;;;;;;;15.10;99.90;;;;;;5015648;28;1177;-45
2022/01/26 09:06:50;;;;;;;;;;;15.20;99.90;;;;;;5016312;28;1272;-45
2022/01/26 09:09:20;;;;;;;;;;;15.30;99.90;;;;;;5014046;28;1160;-45
2022/01/26 09:11:48;;;;;;;;;;;15.30;99.90;;;;;;5014908;28;1418;-45
2022/01/26 09:14:20;;;;;;;;;;;15.40;99.90;;;;;;5014175;28;1159;-45
2022/01/26 09:16:46;;;;;;;;;;;15.40;99.90;;;;;;5016059;28;1008;-45
2022/01/26 09:21:50;;;;;;;;;;;15.50;99.90;;;;;;5014262;28;1288;-45
2022/01/26 09:24:17;;;;;;;;;;;15.50;99.90;;;;;;5013059;28;1009;-45
2022/01/26 09:26:43;;;;;;;;;;;15.50;99.90;;;;;;5015927;28;1191;-45
2022/01/26 09:29:09;;;;;;;;;;;15.50;99.90;;;;;;5015667;28;1311;-45
2022/01/26 09:31:36;;;;;;;;;;;15.50;99.90;;;;;;5014804;28;1520;-44
2022/01/26 09:34:02;;;;;;;;;;;15.60;99.90;;;;;;5015579;28;1171;-45
2022/01/26 09:36:30;;;;;;;;;;;15.60;99.90;;;;;;5012131;28;1024;-56
2022/01/26 09:38:56;;;;;;;;;;;15.60;99.90;;;;;;5011199;28;1910;-55
2022/01/26 09:41:25;;;;;;;;;;;15.60;99.90;;;;;;5014473;28;1461;-56
2022/01/26 09:43:55;;;;;;;;;;;15.60;99.90;;;;;;5012712;28;1144;-55
2022/01/26 09:46:21;;;;;;;;;;;15.60;99.90;;;;;;5015471;28;1199;-54
2022/01/26 09:48:47;;;;;;;;;;;15.70;99.90;;;;;;5013829;28;1402;-45
2022/01/26 09:51:14;;;;;;;;;;;15.80;99.90;;;;;;5001925;28;1175;-45
2022/01/26 09:53:40;;;;;;;;;;;15.80;99.90;;;;;;5006687;28;1199;-45
2022/01/26 09:56:07;;;;;;;;;;;15.90;99.90;;;;;;5013953;28;1137;-45
2022/01/26 09:58:36;;;;;;;;;;;15.90;99.90;;;;;;5015498;28;1910;-44
2022/01/26 10:01:03;;;;;;;;;;;16.00;99.90;;;;;;5012202;28;1380;-45
2022/01/26 10:03:33;;;;;;;;;;;16.00;99.90;;;;;;5015293;28;1367;-54
2022/01/26 10:06:03;;;;;;;;;;;16.00;99.90;;;;;;5014106;28;891;-54
2022/01/26 10:19:19;;;;;;;;;;;16.30;99.90;;;;;;5015769;28;1910;-45
2022/01/26 10:21:46;;;;;;;;;;;16.30;99.90;;;;;;5015089;28;1680;-44
2022/01/26 10:24:12;;;;;;;;;;;16.30;99.90;;;;;;5013568;28;1253;-45
2022/01/26 10:26:38;;;;;;;;;;;16.40;99.90;;;;;;5015745;28;1002;-44
2022/01/26 10:29:04;;;;;;;;;;;16.40;99.90;;;;;;5015436;28;886;-45
2022/01/26 10:31:49;;;;;;;;;;;16.40;99.90;;;;;;5015503;28;1472;-55
2022/01/26 10:34:22;;;;;;;;;;;16.40;99.90;;;;;;5015638;28;818;-54
2022/01/26 10:37:06;;;;;;;;;;;16.50;99.90;;;;;;5014886;28;900;-55
2022/01/26 10:42:05;;;;;;;;;;;16.50;99.90;;;;;;4996256;28;774;-55
2022/01/26 10:44:34;;;;;;;;;;;16.50;99.90;;;;;;4995879;28;1026;-55
2022/01/26 10:47:03;;;;;;;;;;;16.50;99.90;;;;;;4995917;28;790;-54
2022/01/26 10:52:22;;;;;;;;;;;16.50;99.90;;;;;;4995316;28;835;-55
2022/01/26 10:54:49;;;;;;;;;;;16.60;99.90;;;;;;4995332;28;867;-54
2022/01/26 10:57:16;;;;;;;;;;;16.60;99.90;;;;;;4997072;28;779;-55
2022/01/26 10:59:43;;;;;;;;;;;16.60;99.90;;;;;;4997880;28;1907;-55
2022/01/26 11:02:10;;;;;;;;;;;16.60;99.90;;;;;;4982559;28;873;-55
2022/01/26 11:04:38;;;;;;;;;;;16.50;99.90;;;;;;4998096;28;1307;-54
2022/01/26 11:07:08;;;;;;;;;;;16.50;99.90;;;;;;4982381;28;865;-55
2022/01/26 11:09:35;;;;;;;;;;;16.50;99.90;;;;;;4996736;28;888;-55
2022/01/26 11:12:06;;;;;;;;;;;16.50;99.90;;;;;;4997014;28;1077;-55
2022/01/26 11:14:42;;;;;;;;;;;16.50;99.90;;;;;;4964320;28;919;-55
2022/01/26 11:17:10;;;;;;;;;;;16.50;99.90;;;;;;4996721;28;886;-55
2022/01/26 11:19:41;;;;;;;;;;;16.50;99.90;;;;;;4983495;28;1906;-55
2022/01/26 11:22:12;;;;;;;;;;;16.50;99.90;;;;;;4979838;28;1624;-54
2022/01/26 11:24:45;;;;;;;;;;;16.50;99.90;;;;;;4978849;28;898;-54
2022/01/26 11:27:11;;;;;;;;;;;16.60;99.90;;;;;;4978618;28;1195;-55
2022/01/26 11:29:43;;;;;;;;;;;16.60;99.90;;;;;;4978419;28;1355;-55
2022/01/26 11:32:13;;;;;;;;;;;16.60;99.90;;;;;;4978588;28;766;-55
2022/01/26 11:34:41;;;;;;;;;;;16.60;99.90;;;;;;4978131;28;963;-55
2022/01/26 11:37:16;;;;;;;;;;;16.70;99.90;;;;;;4977858;28;906;-55
2022/01/26 11:45:33;;;;;;;;;;;16.80;99.90;;;;;;5016242;28;846;-55
2022/01/26 11:48:01;;;;;;;;;;;16.80;99.90;;;;;;5016504;28;996;-55
2022/01/26 11:50:28;;;;;;;;;;;16.90;99.90;;;;;;5016130;28;927;-55
2022/01/26 11:53:02;;;;;;;;;;;16.90;99.90;;;;;;5010154;28;1205;-55
2022/01/26 11:55:39;;;;;;;;;;;16.90;99.90;;;;;;5017898;28;928;-54
2022/01/26 11:58:08;;;;;;;;;;;16.90;99.90;;;;;;5014404;28;817;-56
2022/01/26 12:00:41;;;;;;;;;;;16.90;99.90;;;;;;5016285;28;1903;-45
2022/01/26 12:03:19;;;;;;;;;;;16.90;99.90;;;;;;4984364;28;1194;-45
2022/01/26 12:05:46;;;;;;;;;;;16.90;99.90;;;;;;5011949;28;1084;-45
2022/01/26 12:08:14;;;;;;;;;;;17.00;99.90;;;;;;5015923;28;905;-45
2022/01/26 12:10:43;;;;;;;;;;;17.00;99.90;;;;;;5015768;28;1001;-45
2022/01/26 12:13:15;;;;;;;;;;;17.00;99.90;;;;;;5016145;28;936;-45
2022/01/26 12:15:54;;;;;;;;;;;17.00;99.90;;;;;;5012593;28;748;-45
2022/01/26 12:33:21;;;;;;;;;;;17.10;99.90;;;;;;4983707;28;769;-45
2022/01/26 12:35:17;;;;;;;;;;;17.10;99.90;;;;;;4986457;28;1370;-45
2022/01/26 12:38:05;;;;;;;;;;;17.20;99.90;;;;;;4980288;28;1140;-45
2022/01/26 12:43:20;;;;;;;;;;;17.40;99.90;;;;;;4995348;28;1159;-45
2022/01/26 12:45:47;;;;;;;;;;;17.50;99.90;;;;;;4996442;28;1301;-45
2022/01/26 12:48:16;;;;;;;;;;;17.50;99.90;;;;;;4979766;28;1377;-44
2022/01/26 12:50:45;;;;;;;;;;;17.50;99.90;;;;;;4996482;28;1176;-54
2022/01/26 12:53:13;;;;;;;;;;;17.50;99.90;;;;;;4996625;28;1388;-54
2022/01/26 12:55:41;;;;;;;;;;;17.50;99.90;;;;;;4995685;28;1176;-55
2022/01/26 12:58:08;;;;;;;;;;;17.50;99.90;;;;;;4997146;28;824;-54
2022/01/26 13:00:43;;;;;;;;;;;17.50;99.90;;;;;;4996955;28;1910;-55
2022/01/26 13:03:13;;;;;;;;;;;17.50;99.90;;;;;;4997124;28;1174;-54
2022/01/26 13:05:41;;;;;;;;;;;17.50;99.90;;;;;;4996450;28;1152;-54
2022/01/26 13:08:15;;;;;;;;;;;17.50;99.90;;;;;;4996752;28;1207;-54
2022/01/26 13:10:43;;;;;;;;;;;17.50;99.90;;;;;;4996824;28;1183;-54
2022/01/26 13:13:27;;;;;;;;;;;17.50;99.90;;;;;;4993698;28;1381;-54
2022/01/26 13:16:04;;;;;;;;;;;17.50;99.90;;;;;;4994141;28;996;-55
2022/01/26 13:18:59;;;;;;;;;;;17.50;99.90;;;;;;4977839;28;1570;-55
2022/01/26 13:21:41;;;;;;;;;;;17.50;99.90;;;;;;4995263;28;1120;-54
2022/01/26 13:24:36;;;;;;;;;;;17.60;99.90;;;;;;4994375;28;1741;-54
2022/01/26 13:28:00;;;;;;;;;;;17.60;99.90;;;;;;4996321;28;1209;-54
2022/01/26 13:35:21;;;;;;;;;;;17.70;99.90;;;;;;4994197;28;1040;-55
2022/01/26 13:38:03;;;;;;;;;;;17.70;99.90;;;;;;4994496;28;1179;-55
2022/01/26 13:46:17;;;;;;;;;;;17.70;99.90;;;;;;4996556;28;754;-55
2022/01/26 13:51:12;;;;;;;;;;;17.70;99.90;;;;;;4993130;28;1229;-56
2022/01/26 13:53:52;;;;;;;;;;;17.70;99.90;;;;;;4987531;28;1318;-55
2022/01/26 13:56:54;;;;;;;;;;;17.70;99.90;;;;;;4989716;28;1417;-56
2022/01/26 13:59:13;;;;;;;;;;;17.70;99.90;;;;;;4994039;28;1902;-54
2022/01/26 14:01:46;;;;;;;;;;;17.80;99.90;;;;;;4992821;28;1244;-53
2022/01/26 14:04:17;;;;;;;;;;;17.80;99.90;;;;;;4996127;28;1748;-53
2022/01/26 14:06:45;;;;;;;;;;;17.80;99.90;;;;;;4997322;28;1289;-54
2022/01/26 14:09:13;;;;;;;;;;;17.70;99.90;;;;;;4959444;28;1408;-53
2022/01/26 14:11:46;;;;;;;;;;;17.70;99.90;;;;;;4979147;28;1073;-53
2022/01/26 14:14:20;;;;;;;;;;;17.70;99.90;;;;;;4987996;28;1200;-53
2022/01/26 14:16:55;;;;;;;;;;;17.80;99.90;;;;;;4990961;28;1502;-53
2022/01/26 14:19:29;;;;;;;;;;;17.80;99.90;;;;;;4992693;28;1899;-54
2022/01/26 14:22:31;;;;;;;;;;;17.80;99.90;;;;;;4995257;28;1220;-53
2022/01/26 14:27:22;;;;;;;;;;;17.80;99.90;;;;;;4991873;28;1170;-52
2022/01/26 14:30:31;;;;;;;;;;;17.80;99.90;;;;;;4990116;28;844;-53
2022/01/26 14:36:20;;;;;;;;;;;17.80;99.90;;;;;;4998796;28;996;-53
2022/01/26 15:35:08;;;;;;;;;;;18.20;99.90;;;;;;4939865;29;822;-43
2022/01/26 15:41:01;;;;;;;;;;;18.70;99.90;;;;;;4940893;29;1974;-43
2022/01/26 15:51:51;;;;;;;;;;;18.90;99.90;;;;;;4938971;29;1448;-44
2022/01/26 16:07:44;;;;;;;;;;;19.20;99.90;;;;;;4977750;28;1189;-43
2022/01/26 16:16:33;;;;;;;;;;;19.30;99.90;;;;;;4975383;28;1060;-43
2022/01/26 16:21:24;;;;;;;;;;;19.10;99.90;;;;;;4977692;28;1906;-43
2022/01/26 16:38:01;;;;;;;;;;;19.00;99.90;;;;;;4977159;28;1374;-53
2022/01/26 17:43:16;;;;;;;;;;;19.30;99.90;;;;;;4995920;28;1271;-44
2022/01/26 18:26:46;;;;;;;;;;;19.50;99.90;;;;;;5002342;28;1402;-44
2022/01/26 18:51:02;;;;;;;;;;;19.40;99.90;;;;;;5002022;28;1530;-44
2022/01/26 18:53:28;;;;;;;;;;;19.40;99.90;;;;;;5001909;28;1445;-44
2022/01/26 18:55:54;;;;;;;;;;;19.40;99.90;;;;;;5002173;28;1152;-44
2022/01/26 18:58:20;;;;;;;;;;;19.40;99.90;;;;;;5002105;28;1732;-44
2022/01/26 19:00:47;;;;;;;;;;;19.40;99.90;;;;;;5002060;28;1906;-44
2022/01/26 19:03:14;;;;;;;;;;;19.40;99.90;;;;;;5001469;28;1534;-44
2022/01/26 19:05:40;;;;;;;;;;;19.30;99.90;;;;;;4996958;28;1374;-53
2022/01/26 19:08:06;;;;;;;;;;;19.40;99.90;;;;;;4994545;28;1516;-53
2022/01/26 19:10:32;;;;;;;;;;;19.30;99.90;;;;;;5000173;28;1612;-53
2022/01/26 19:12:58;;;;;;;;;;;19.40;99.90;;;;;;4994635;28;1696;-54
2022/01/26 19:15:30;;;;;;;;;;;19.40;99.90;;;;;;4999831;28;1343;-53
2022/01/26 19:18:03;;;;;;;;;;;19.40;99.90;;;;;;4998604;28;1328;-54
2022/01/26 19:23:13;;;;;;;;;;;19.40;99.90;;;;;;4997149;28;1234;-53
2022/01/26 19:25:51;;;;;;;;;;;19.40;99.90;;;;;;4997579;28;1362;-54
2022/01/26 19:28:24;;;;;;;;;;;19.40;99.90;;;;;;4996961;28;1630;-44
2022/01/26 19:43:24;;;;;;;;;;;19.50;99.90;;;;;;4991676;28;1942;-54
2022/01/26 19:52:30;;;;;;;;;;;19.60;99.90;;;;;;4992880;28;1385;-54
2022/01/26 19:54:56;;;;;;;;;;;19.60;99.90;;;;;;4997046;28;1022;-53
2022/01/26 19:57:23;;;;;;;;;;;19.60;99.90;;;;;;4995763;28;1412;-54
2022/01/26 19:59:50;;;;;;;;;;;19.70;99.90;;;;;;4995463;28;1907;-53
2022/01/26 20:02:16;;;;;;;;;;;19.70;99.90;;;;;;4988363;28;1406;-53
2022/01/26 20:04:42;;;;;;;;;;;19.80;99.90;;;;;;4995377;28;1725;-53
2022/01/26 20:07:15;;;;;;;;;;;19.80;99.90;;;;;;4997661;28;1574;-53
2022/01/26 20:09:54;;;;;;;;;;;19.90;99.90;;;;;;4997737;28;983;-53
2022/01/26 20:12:30;;;;;;;;;;;19.90;99.90;;;;;;4997240;28;1562;-53
2022/01/26 20:14:57;;;;;;;;;;;19.90;99.90;;;;;;4994446;28;1405;-53
2022/01/26 20:17:26;;;;;;;;;;;19.90;99.90;;;;;;4995567;28;1550;-53
2022/01/26 20:19:54;;;;;;;;;;;19.90;99.90;;;;;;4993350;28;1907;-53
2022/01/26 20:22:21;;;;;;;;;;;20.00;99.90;;;;;;4991616;28;1573;-53
2022/01/26 20:24:48;;;;;;;;;;;20.00;99.90;;;;;;4997850;28;1724;-53
2022/01/26 20:27:18;;;;;;;;;;;20.00;99.90;;;;;;4980041;28;1672;-53
2022/01/26 20:29:48;;;;;;;;;;;20.00;99.90;;;;;;4975572;28;1601;-53
2022/01/26 20:32:15;;;;;;;;;;;20.00;99.90;;;;;;4976214;28;1609;-53
2022/01/26 20:34:42;;;;;;;;;;;20.00;99.90;;;;;;4958832;28;1693;-53
2022/01/26 20:37:08;;;;;;;;;;;20.00;99.90;;;;;;4971217;28;1414;-54
2022/01/26 20:39:34;;;;;;;;;;;20.00;99.90;;;;;;4974761;28;1478;-53
2022/01/26 20:42:01;;;;;;;;;;;20.00;99.90;;;;;;4976309;28;1962;-53
2022/01/26 20:44:29;;;;;;;;;;;20.00;99.90;;;;;;4973727;28;1586;-54
2022/01/26 20:46:56;;;;;;;;;;;20.00;99.90;;;;;;4974501;28;1586;-55
2022/01/26 20:49:23;;;;;;;;;;;20.00;99.90;;;;;;4976110;28;1071;-54
2022/01/26 20:51:50;;;;;;;;;;;20.00;99.90;;;;;;4975955;28;1582;-54
2022/01/26 20:54:16;;;;;;;;;;;19.90;99.90;;;;;;4959667;28;1701;-54
2022/01/26 20:56:42;;;;;;;;;;;19.90;99.90;;;;;;4975741;28;1660;-53
2022/01/26 20:59:08;;;;;;;;;;;19.90;99.90;;;;;;4975720;28;1570;-54
2022/01/26 21:01:34;;;;;;;;;;;19.90;99.90;;;;;;4993581;28;1973;-53
2022/01/26 21:04:00;;;;;;;;;;;19.90;99.90;;;;;;4993111;28;1203;-53
2022/01/26 21:06:27;;;;;;;;;;;19.90;99.90;;;;;;4995106;28;1442;-53
2022/01/26 21:08:56;;;;;;;;;;;20.00;99.90;;;;;;4996131;28;1021;-53
2022/01/26 21:11:22;;;;;;;;;;;19.90;99.90;;;;;;4977540;28;998;-54
2022/01/26 21:13:53;;;;;;;;;;;19.90;99.90;;;;;;4997163;28;870;-54
2022/01/26 21:16:20;;;;;;;;;;;19.80;99.90;;;;;;4946819;28;1181;-54
2022/01/26 21:18:46;;;;;;;;;;;19.60;99.90;;;;;;4978978;28;1338;-53
2022/01/26 21:21:12;;;;;;;;;;;19.40;99.90;;;;;;4997550;28;1973;-54
2022/01/26 21:23:39;;;;;;;;;;;19.20;99.90;;;;;;4996532;28;1283;-54
2022/01/26 21:26:05;;;;;;;;;;;19.00;99.90;;;;;;4996464;28;1159;-54